Terminal Aerodrome Forecast
Issued by NWS Rapid City, SD

Home | Current Version | Previous Version | Graphics & Text | Print | Product List | Glossary On
Versions: 1 2 3 4 5 6 7 8 9 10 11 12 13 14 15 16 17 18 19
000
FTUS43 KUNR 252100 AAA
TAFRAP
TAF AMD
KRAP 252103Z 2521/2618 36023G33KT 6SM -SN SCT007 OVC012
      TEMPO 2521/2601 2SM -SN BLSN
     FM260100 36015G25KT 5SM -SN OVC015
     FM260900 01010KT P6SM OVC015=

USA.gov is the U.S. government's official web portal to all federal, state and local government web resources and services.